Time;durP1;ratioP1;P1;durP2;ratioP2;P2;SDS_P1;SDS_P2;PMS_P1;PMS_P2;Temp;Humidity;BMP_temperature;BMP_pressure;BME280_temperature;BME280_humidity;BME280_pressure;Samples;Min_cycle;Max_cycle;Signal;HPM_P1;HPM_P2
2022/08/03 00:00:56;;;;;;;10.38;8.38;;;;;;;18.39;77.90;100928.64;1742029;80;25917;-78
2022/08/03 00:03:22;;;;;;;7.97;6.78;;;;;;;18.38;78.06;100929.68;1720362;81;25785;-77
2022/08/03 00:05:49;;;;;;;10.68;7.25;;;;;;;18.36;77.93;100927.73;1719518;81;26515;-80
2022/08/03 00:08:15;;;;;;;11.00;7.80;;;;;;;18.34;77.94;100931.20;1719782;81;28280;-79
2022/08/03 00:10:41;;;;;;;13.43;8.15;;;;;;;18.34;78.15;100929.84;1696286;82;25737;-78
2022/08/03 00:13:08;;;;;;;14.60;8.50;;;;;;;18.35;78.34;100935.03;1732667;82;25827;-80
2022/08/03 00:15:34;;;;;;;16.30;8.23;;;;;;;18.34;78.46;100932.55;1734621;81;25863;-80
2022/08/03 00:18:00;;;;;;;13.53;7.72;;;;;;;18.34;78.50;100936.62;1727563;81;26028;-77
2022/08/03 00:20:27;;;;;;;9.28;8.20;;;;;;;18.32;78.50;100939.58;1725941;81;27455;-80
2022/08/03 00:22:54;;;;;;;10.10;7.87;;;;;;;18.31;78.47;100931.64;1718959;81;25987;-79
2022/08/03 00:25:20;;;;;;;11.97;8.58;;;;;;;18.32;78.55;100941.45;1711355;82;26134;-79
2022/08/03 00:27:47;;;;;;;11.28;8.05;;;;;;;18.31;78.61;100939.78;1718195;81;26278;-79
2022/08/03 00:30:13;;;;;;;10.58;9.40;;;;;;;18.28;78.63;100942.41;1714060;83;26659;-79
2022/08/03 00:32:39;;;;;;;12.03;9.10;;;;;;;18.24;78.79;100939.06;1712858;81;27476;-80
2022/08/03 00:35:07;;;;;;;12.10;9.00;;;;;;;18.22;78.85;100937.91;1724542;81;26469;-79
2022/08/03 00:37:33;;;;;;;13.32;10.08;;;;;;;18.18;78.85;100934.00;1716067;82;25932;-78
2022/08/03 00:39:59;;;;;;;12.37;10.68;;;;;;;18.17;79.05;100936.95;1731752;81;26570;-79
2022/08/03 00:42:26;;;;;;;16.20;10.63;;;;;;;18.15;79.17;100931.77;1733424;80;25825;-77
2022/08/03 00:44:52;;;;;;;16.27;11.00;;;;;;;18.12;79.05;100941.70;1747591;80;28241;-79
2022/08/03 00:47:18;;;;;;;11.03;9.70;;;;;;;18.10;79.05;100942.45;1730274;80;25360;-80
2022/08/03 00:49:44;;;;;;;12.23;8.58;;;;;;;18.07;79.00;100943.45;1736412;80;25765;-80
2022/08/03 00:52:13;;;;;;;12.90;8.65;;;;;;;18.04;78.82;100950.15;1743919;80;26036;-78
2022/08/03 00:54:39;;;;;;;14.75;9.65;;;;;;;18.00;78.74;100948.95;1736904;80;25317;-79
2022/08/03 00:57:07;;;;;;;11.00;9.85;;;;;;;17.93;78.80;100944.12;1707979;82;27598;-78
2022/08/03 00:59:33;;;;;;;13.78;9.58;;;;;;;17.91;78.96;100950.81;1733164;81;26627;-79
2022/08/03 01:01:59;;;;;;;14.55;11.33;;;;;;;17.86;78.85;100946.06;1711772;81;25721;-80
2022/08/03 01:04:26;;;;;;;19.77;17.20;;;;;;;17.82;79.13;100946.22;1721775;82;25851;-79
2022/08/03 01:07:34;;;;;;;25.45;21.73;;;;;;;17.79;79.45;100947.22;1706338;83;25896;-79
2022/08/03 01:10:17;;;;;;;23.42;20.32;;;;;;;17.78;79.50;100943.66;1709703;82;27433;-78
2022/08/03 01:13:41;;;;;;;24.00;21.52;;;;;;;17.79;79.63;100946.69;1712225;82;25776;-79
2022/08/03 01:16:44;;;;;;;23.83;19.25;;;;;;;17.76;79.48;100943.59;1704689;83;25775;-79
2022/08/03 01:19:41;;;;;;;20.17;17.57;;;;;;;17.72;79.54;100929.67;1708567;82;25838;-78
2022/08/03 01:22:33;;;;;;;18.75;16.42;;;;;;;17.72;79.64;100929.67;1714289;82;25862;-78
2022/08/03 01:25:26;;;;;;;20.27;18.10;;;;;;;17.68;79.78;100934.69;1722119;83;27486;-77
2022/08/03 01:28:38;;;;;;;19.37;14.53;;;;;;;17.65;79.73;100938.38;1713738;83;25816;-79
2022/08/03 01:31:07;;;;;;;13.83;10.10;;;;;;;17.60;80.01;100936.34;1708621;83;25801;-79
2022/08/03 01:33:42;;;;;;;13.03;9.93;;;;;;;17.47;79.66;100940.50;1700172;82;26276;-80
2022/08/03 01:36:17;;;;;;;12.18;8.50;;;;;;;17.43;79.83;100935.75;1687971;84;26629;-78
2022/08/03 01:38:54;;;;;;;11.00;9.28;;;;;;;17.37;79.92;100938.84;1743404;81;27164;-80
2022/08/03 01:41:31;;;;;;;11.05;9.93;;;;;;;17.37;80.09;100943.42;1750761;80;25804;-79
2022/08/03 01:44:02;;;;;;;13.03;10.40;;;;;;;17.36;80.19;100937.20;1738273;80;25752;-80
2022/08/03 01:46:30;;;;;;;16.35;10.00;;;;;;;17.35;80.32;100938.75;1740442;81;26022;-78
2022/08/03 01:48:59;;;;;;;12.78;11.12;;;;;;;17.33;80.09;100936.28;1739979;81;26031;-79
2022/08/03 01:51:26;;;;;;;13.15;10.08;;;;;;;17.31;80.26;100931.61;1735354;81;27446;-79
2022/08/03 01:53:53;;;;;;;14.53;11.35;;;;;;;17.28;80.14;100929.34;1744042;81;25548;-77
2022/08/03 01:56:24;;;;;;;13.22;10.72;;;;;;;17.26;80.36;100928.73;1729982;81;25756;-79
2022/08/03 01:58:53;;;;;;;12.43;11.12;;;;;;;17.27;80.38;100933.62;1745006;81;25859;-77
2022/08/03 02:01:22;;;;;;;12.20;10.72;;;;;;;17.23;80.25;100931.06;1719683;82;25783;-78
2022/08/03 02:03:49;;;;;;;13.10;10.18;;;;;;;17.19;80.38;100930.70;1686665;84;27468;-79
2022/08/03 02:06:20;;;;;;;10.43;9.30;;;;;;;17.15;80.28;100932.70;1687621;83;25797;-79
2022/08/03 02:08:48;;;;;;;10.53;9.33;;;;;;;17.12;80.35;100930.43;1690392;83;26534;-79
2022/08/03 02:11:15;;;;;;;13.40;9.73;;;;;;;17.11;80.46;100928.79;1688048;82;26366;-78
2022/08/03 02:13:43;;;;;;;11.80;9.53;;;;;;;17.13;80.59;100930.75;1689201;83;25930;-80
2022/08/03 02:16:12;;;;;;;10.78;9.35;;;;;;;17.11;80.46;100923.38;1695613;84;27513;-78
2022/08/03 02:18:41;;;;;;;12.70;9.35;;;;;;;17.09;80.61;100925.45;1689461;83;25908;-78
2022/08/03 02:21:11;;;;;;;11.25;9.40;;;;;;;17.07;80.58;100924.84;1687572;84;25860;-78
2022/08/03 02:23:38;;;;;;;12.13;10.55;;;;;;;17.08;80.63;100919.75;1697043;83;25826;-78
2022/08/03 02:26:08;;;;;;;13.72;11.35;;;;;;;17.11;80.83;100920.12;1721999;81;25330;-78
2022/08/03 02:28:39;;;;;;;12.28;10.98;;;;;;;17.16;81.15;100921.65;1719995;82;27445;-79
2022/08/03 02:31:13;;;;;;;19.23;11.35;;;;;;;17.19;81.36;100917.67;1698368;82;25774;-77
2022/08/03 02:33:45;;;;;;;12.50;11.18;;;;;;;17.19;81.40;100917.67;1732031;81;25813;-78
2022/08/03 02:36:13;;;;;;;10.85;9.75;;;;;;;17.18;81.28;100920.06;1709770;82;26561;-78
2022/08/03 02:38:43;;;;;;;11.88;9.98;;;;;;;17.15;81.33;100921.87;1735047;80;25341;-78
2022/08/03 02:41:20;;;;;;;12.35;10.35;;;;;;;17.14;81.32;100923.75;1735347;81;27444;-79
2022/08/03 02:43:51;;;;;;;16.42;10.95;;;;;;;17.09;81.11;100929.51;1743525;80;25841;-78
2022/08/03 02:46:19;;;;;;;;;;;;;;;17.05;81.03;100932.35;1713428;80;25832;-78
2022/08/03 02:48:47;;;;;;;12.45;9.93;;;;;;;17.01;81.19;100925.22;1737219;80;25792;-79
2022/08/03 02:51:17;;;;;;;14.20;9.03;;;;;;;16.94;81.06;100922.55;1722052;81;25912;-78
2022/08/03 02:53:46;;;;;;;11.68;9.43;;;;;;;16.91;80.90;100929.75;1758653;80;28285;-79
2022/08/03 02:56:14;;;;;;;11.45;8.55;;;;;;;16.88;80.84;100927.50;1712352;82;25759;-79
2022/08/03 02:58:43;;;;;;;9.58;7.03;;;;;;;16.83;80.68;100930.55;1712759;82;26424;-77
2022/08/03 03:01:11;;;;;;;7.05;6.35;;;;;;;16.79;80.66;100935.58;1718534;81;26025;-78
2022/08/03 03:03:39;;;;;;;11.22;6.35;;;;;;;16.72;80.79;100928.02;1719233;82;25804;-79
2022/08/03 03:06:07;;;;;;;8.70;6.17;;;;;;;16.70;80.94;100936.88;1713502;81;27459;-79
2022/08/03 03:08:34;;;;;;;7.87;6.35;;;;;;;16.67;80.84;100932.44;1712696;81;26517;-77
2022/08/03 03:11:01;;;;;;;8.88;7.03;;;;;;;16.66;80.92;100942.42;1715643;81;25777;-79
2022/08/03 03:13:31;;;;;;;10.35;7.30;;;;;;;16.63;80.80;100936.11;1719401;82;26415;-78
2022/08/03 03:16:00;;;;;;;11.50;8.00;;;;;;;16.62;80.77;100937.14;1724504;82;26032;-79
2022/08/03 03:18:28;;;;;;;9.25;7.15;;;;;;;16.62;81.03;100944.42;1708986;82;27727;-79
2022/08/03 03:20:57;;;;;;;11.35;7.67;;;;;;;16.60;81.20;100941.95;1719334;82;26577;-77
2022/08/03 03:23:25;;;;;;;8.18;7.08;;;;;;;16.59;81.26;100943.52;1722134;81;25955;-78
2022/08/03 03:25:54;;;;;;;10.85;7.80;;;;;;;16.58;81.26;100945.91;1719373;82;25889;-78
2022/08/03 03:28:23;;;;;;;;;;;;;;;16.55;81.34;100947.16;1745174;80;25796;-78
2022/08/03 03:30:51;;;;;;;9.48;7.67;;;;;;;16.56;81.46;100948.84;1741678;80;27528;-78
2022/08/03 03:33:17;;;;;;;9.93;7.92;;;;;;;16.53;81.61;100950.61;1718169;81;25811;-79
2022/08/03 03:35:45;;;;;;;8.75;7.85;;;;;;;16.54;81.60;100939.28;1743506;80;26440;-80
2022/08/03 03:38:12;;;;;;;9.48;7.90;;;;;;;16.54;81.78;100940.12;1742084;80;25859;-78
2022/08/03 03:40:38;;;;;;;8.60;6.70;;;;;;;16.56;81.84;100938.54;1736350;81;26553;-78
2022/08/03 03:43:09;;;;;;;14.15;7.65;;;;;;;16.56;81.84;100943.95;1721193;81;26872;-78
2022/08/03 03:45:35;;;;;;;8.43;6.72;;;;;;;16.56;81.87;100945.30;1717038;82;26396;-77
2022/08/03 03:48:04;;;;;;;9.23;7.58;;;;;;;16.56;81.97;100951.55;1729165;81;26237;-78
2022/08/03 03:50:35;;;;;;;9.50;6.62;;;;;;;16.57;82.09;100946.97;1722188;81;25748;-78
2022/08/03 03:53:03;;;;;;;11.40;6.80;;;;;;;16.58;82.24;100943.20;1726683;81;25977;-78
2022/08/03 03:55:30;;;;;;;11.22;7.10;;;;;;;16.60;82.10;100942.46;1720056;82;28278;-78
2022/08/03 03:57:56;;;;;;;7.92;6.97;;;;;;;16.61;82.22;100951.73;1726267;81;25963;-77
2022/08/03 04:00:22;;;;;;;7.35;6.65;;;;;;;16.62;82.37;100952.02;1720592;81;26085;-77
2022/08/03 04:02:49;;;;;;;8.63;7.20;;;;;;;16.61;82.34;100949.03;1724088;82;25766;-79
2022/08/03 04:11:40;;;;;;;8.73;7.75;;;;;;;16.65;82.96;100953.47;1721734;81;25910;-78
2022/08/03 04:14:11;;;;;;;10.08;8.78;;;;;;;16.67;83.41;100958.13;1645823;85;26669;-78
2022/08/03 04:16:42;;;;;;;13.35;9.35;;;;;;;16.71;83.95;100952.59;1700156;81;25869;-76
2022/08/03 04:19:10;;;;;;;;;;;;;;;16.78;84.37;100958.28;1728204;82;26578;-76
2022/08/03 04:21:43;;;;;;;10.45;9.45;;;;;;;16.86;85.08;100954.47;1720869;81;27561;-78
2022/08/03 04:24:12;;;;;;;12.63;11.20;;;;;;;16.91;85.19;100958.16;1692044;82;25956;-78
2022/08/03 04:26:41;;;;;;;12.53;11.22;;;;;;;17.01;85.37;100959.56;1723274;81;25847;-78
2022/08/03 04:29:10;;;;;;;13.03;8.60;;;;;;;17.10;85.61;100967.72;1748556;81;25807;-77
2022/08/03 04:31:38;;;;;;;10.20;8.03;;;;;;;17.15;85.92;100975.47;1720478;81;25933;-78
2022/08/03 04:34:04;;;;;;;9.63;8.38;;;;;;;17.16;85.52;100977.14;1704946;82;27479;-76
2022/08/03 04:36:36;;;;;;;10.05;8.98;;;;;;;17.15;85.39;100971.41;1707867;81;25991;-80
2022/08/03 04:39:25;;;;;;;9.90;8.80;;;;;;;17.16;85.31;100973.59;1707233;81;25803;-79
2022/08/03 04:41:55;;;;;;;10.58;8.48;;;;;;;17.16;85.44;100980.37;1704584;82;26515;-77
2022/08/03 04:44:25;;;;;;;12.73;8.40;;;;;;;17.17;85.54;100989.61;1711145;81;25277;-77
2022/08/03 04:46:52;;;;;;;9.38;8.40;;;;;;;17.17;85.62;100986.10;1713309;81;27453;-77
2022/08/03 04:49:20;;;;;;;10.28;9.28;;;;;;;17.18;85.63;100995.34;1707763;82;26069;-79
2022/08/03 04:51:48;;;;;;;10.60;8.53;;;;;;;17.18;85.68;100989.94;1711510;82;26012;-78
2022/08/03 04:54:15;;;;;;;10.10;8.45;;;;;;;17.22;85.75;100987.60;1711106;82;25837;-77
2022/08/03 04:56:43;;;;;;;9.53;7.87;;;;;;;17.22;85.78;100988.44;1712817;83;25962;-78
2022/08/03 04:59:10;;;;;;;9.33;7.55;;;;;;;17.23;85.74;100987.41;1711533;81;27448;-77
2022/08/03 05:01:39;;;;;;;10.50;7.75;;;;;;;17.21;85.77;100985.45;1708653;82;26565;-76
2022/08/03 05:04:06;;;;;;;10.30;7.75;;;;;;;17.21;85.72;100985.45;1734715;80;25722;-78
2022/08/03 05:06:32;;;;;;;8.33;7.53;;;;;;;17.22;85.83;100994.38;1698848;81;26228;-78
2022/08/03 05:08:58;;;;;;;9.93;8.60;;;;;;;17.21;85.95;100990.86;1709485;81;26454;-78
2022/08/03 05:11:25;;;;;;;11.70;10.55;;;;;;;17.23;85.98;100989.27;1720705;81;27440;-79
2022/08/03 05:13:51;;;;;;;13.95;10.28;;;;;;;17.24;86.10;100985.50;1708658;81;25888;-78
2022/08/03 05:16:18;;;;;;;13.28;11.80;;;;;;;17.28;86.25;100989.45;1722550;81;25716;-76
2022/08/03 05:18:45;;;;;;;13.43;12.13;;;;;;;17.33;86.40;100996.37;1717498;81;25978;-78
2022/08/03 05:21:15;;;;;;;13.68;12.03;;;;;;;17.38;86.51;100996.55;1720394;81;26313;-78
2022/08/03 05:23:43;;;;;;;12.95;11.22;;;;;;;17.44;86.67;101001.91;1732726;81;26964;-80
2022/08/03 05:26:13;;;;;;;15.48;13.00;;;;;;;17.50;86.86;101001.05;1707964;82;25794;-78
2022/08/03 05:28:39;;;;;;;16.35;14.75;;;;;;;17.62;87.14;100998.45;1729666;80;25862;-78
2022/08/03 05:31:05;;;;;;;16.05;14.35;;;;;;;17.75;87.29;101002.91;1739057;80;25859;-78
2022/08/03 05:33:32;;;;;;;17.52;15.55;;;;;;;17.88;87.52;101001.42;1732569;81;25740;-77
2022/08/03 05:35:58;;;;;;;19.45;15.23;;;;;;;18.00;87.72;101003.16;1715174;81;28259;-78
2022/08/03 05:38:25;;;;;;;16.15;14.43;;;;;;;18.14;87.79;101002.47;1735266;81;25790;-79
2022/08/03 05:40:52;;;;;;;16.82;15.05;;;;;;;18.27;88.05;100995.53;1716181;81;25867;-77
2022/08/03 05:43:18;;;;;;;16.65;13.83;;;;;;;18.40;88.12;101001.63;1738661;81;26010;-77
2022/08/03 05:45:44;;;;;;;15.40;13.22;;;;;;;18.56;88.27;101007.52;1752699;80;25836;-77
2022/08/03 05:48:10;;;;;;;17.30;13.88;;;;;;;18.71;89.03;101010.66;1739023;80;26940;-78
2022/08/03 05:50:37;;;;;;;14.50;12.98;;;;;;;18.86;89.55;101009.72;1720995;81;25795;-77
2022/08/03 05:53:03;;;;;;;15.23;11.93;;;;;;;19.00;90.05;101012.00;1723019;81;25999;-78
2022/08/03 05:55:29;;;;;;;13.45;12.13;;;;;;;19.15;90.33;101006.13;1735374;80;26448;-78
2022/08/03 05:57:56;;;;;;;13.65;10.93;;;;;;;19.30;90.27;101012.47;1737608;80;25950;-79
2022/08/03 06:00:23;;;;;;;16.12;11.38;;;;;;;19.43;90.55;101013.65;1744037;80;27468;-79
2022/08/03 06:02:49;;;;;;;16.75;10.35;;;;;;;19.56;90.21;101019.70;1740580;80;25977;-78
2022/08/03 06:05:15;;;;;;;10.65;9.40;;;;;;;19.68;90.04;101019.69;1743438;80;25797;-78
2022/08/03 06:07:42;;;;;;;10.75;9.65;;;;;;;19.80;89.27;101018.62;1731170;80;26632;-79
2022/08/03 06:10:08;;;;;;;11.08;10.03;;;;;;;19.94;89.17;101022.77;1735958;81;25931;-78
2022/08/03 06:12:35;;;;;;;11.25;10.18;;;;;;;20.07;89.54;101024.41;1734257;80;27459;-78
2022/08/03 06:15:03;;;;;;;12.13;9.63;;;;;;;20.22;90.37;101026.66;1731086;81;25833;-79
2022/08/03 06:17:29;;;;;;;10.45;9.45;;;;;;;20.34;89.90;101029.64;1738236;81;25801;-79
2022/08/03 06:19:56;;;;;;;10.38;9.15;;;;;;;20.46;89.85;101024.19;1744422;81;25887;-78
2022/08/03 06:22:22;;;;;;;12.35;9.05;;;;;;;20.58;89.96;101027.16;1746656;81;25947;-79
2022/08/03 06:24:48;;;;;;;10.15;9.25;;;;;;;20.66;89.58;101024.05;1743689;80;28311;-77
2022/08/03 06:27:15;;;;;;;9.03;8.23;;;;;;;20.73;89.49;101020.66;1716582;81;25752;-78
2022/08/03 06:29:41;;;;;;;9.80;8.90;;;;;;;20.78;89.35;101013.92;1742213;81;25317;-79
2022/08/03 06:32:08;;;;;;;9.45;8.50;;;;;;;20.83;88.48;101020.00;1742091;81;26433;-78
2022/08/03 06:34:34;;;;;;;9.28;8.28;;;;;;;20.90;88.58;101017.13;1710709;82;25953;-78
2022/08/03 06:37:01;;;;;;;12.68;8.95;;;;;;;20.99;88.58;101021.13;1708765;82;27452;-78
2022/08/03 06:39:27;;;;;;;12.75;8.65;;;;;;;21.08;88.91;101019.16;1710843;81;25747;-78
2022/08/03 06:41:53;;;;;;;11.95;9.08;;;;;;;21.18;88.77;101019.86;1710494;81;25875;-79
2022/08/03 06:44:19;;;;;;;10.82;8.83;;;;;;;21.24;88.78;101022.43;1713042;81;26191;-79
2022/08/03 06:46:46;;;;;;;8.83;7.42;;;;;;;21.32;88.26;101020.66;1712339;81;25576;-78
2022/08/03 06:49:12;;;;;;;11.57;7.35;;;;;;;21.42;88.29;101017.28;1718684;81;27427;-78
2022/08/03 06:51:39;;;;;;;10.90;7.40;;;;;;;21.53;87.80;101021.83;1717278;82;25987;-79
2022/08/03 06:54:06;;;;;;;8.05;6.87;;;;;;;21.64;87.95;101022.82;1718749;82;25957;-78
2022/08/03 06:56:33;;;;;;;8.38;6.97;;;;;;;21.74;87.25;101018.88;1741218;81;26396;-78
2022/08/03 06:58:59;;;;;;;7.28;6.58;;;;;;;21.84;86.26;101021.25;1729638;81;26061;-80
2022/08/03 07:01:25;;;;;;;6.80;5.92;;;;;;;21.95;86.67;101018.95;1727559;81;26742;-78
2022/08/03 07:03:53;;;;;;;8.93;7.00;;;;;;;22.06;86.58;101019.39;1731010;81;27398;-78
2022/08/03 07:06:19;;;;;;;7.90;7.05;;;;;;;22.17;86.22;101021.19;1727837;81;25321;-79
2022/08/03 07:08:46;;;;;;;8.18;6.58;;;;;;;22.25;84.90;101026.73;1719290;81;26046;-77
2022/08/03 07:11:12;;;;;;;7.03;6.08;;;;;;;22.34;84.73;101028.48;1720369;81;25331;-78
2022/08/03 07:13:40;;;;;;;8.65;6.33;;;;;;;22.41;84.37;101035.95;1717535;81;27498;-77
2022/08/03 07:16:06;;;;;;;8.73;5.65;;;;;;;22.48;83.89;101036.56;1747241;80;26002;-77
2022/08/03 07:18:32;;;;;;;7.10;5.47;;;;;;;22.53;83.68;101033.37;1721791;81;25307;-79
2022/08/03 07:20:58;;;;;;;6.65;4.60;;;;;;;22.57;83.00;101037.78;1726426;81;26249;-78
2022/08/03 07:23:27;;;;;;;7.80;4.92;;;;;;;22.58;81.27;101032.61;1726787;82;25760;-78
2022/08/03 07:25:53;;;;;;;6.53;4.95;;;;;;;22.58;80.25;101033.98;1718083;81;27491;-78
2022/08/03 07:28:19;;;;;;;5.75;5.25;;;;;;;22.59;80.57;101032.91;1727364;81;25983;-78
2022/08/03 07:30:46;;;;;;;5.97;5.45;;;;;;;22.61;80.86;101034.85;1738154;80;26572;-79
2022/08/03 07:33:13;;;;;;;6.58;5.97;;;;;;;22.61;80.92;101034.31;1722845;81;25911;-79
2022/08/03 07:35:40;;;;;;;11.60;6.55;;;;;;;22.63;80.64;101040.34;1726801;81;26053;-80
2022/08/03 07:38:06;;;;;;;6.30;5.00;;;;;;;22.64;80.80;101037.08;1753488;80;27449;-79
2022/08/03 07:40:32;;;;;;;8.65;5.42;;;;;;;22.65;80.40;101038.19;1718670;81;26285;-79
2022/08/03 07:43:02;;;;;;;6.10;4.78;;;;;;;22.66;80.47;101035.75;1729659;81;25835;-80
2022/08/03 07:45:29;;;;;;;6.83;5.08;;;;;;;22.69;80.43;101038.52;1750819;81;25802;-79
2022/08/03 07:47:56;;;;;;;6.80;4.78;;;;;;;22.71;80.25;101039.09;1714980;81;25928;-79
2022/08/03 07:50:22;;;;;;;6.42;4.60;;;;;;;22.71;79.39;101039.09;1725797;81;27461;-80
2022/08/03 07:52:51;;;;;;;6.42;4.53;;;;;;;22.72;79.60;101037.98;1748572;80;25981;-79
2022/08/03 07:55:21;;;;;;;5.90;4.42;;;;;;;22.72;78.69;101033.36;1744548;80;25742;-80
2022/08/03 07:58:06;;;;;;;6.17;4.78;;;;;;;22.73;79.18;101037.72;1730930;81;25742;-79
2022/08/03 08:00:32;;;;;;;8.83;4.78;;;;;;;22.74;78.86;101033.92;1726923;81;25770;-79
2022/08/03 08:02:59;;;;;;;6.42;5.33;;;;;;;22.77;80.08;101035.33;1727211;81;27446;-77
2022/08/03 08:05:25;;;;;;;6.17;5.40;;;;;;;22.84;79.21;101029.94;1744536;81;25815;-79
2022/08/03 08:07:51;;;;;;;6.33;5.12;;;;;;;22.93;79.23;101033.03;1715303;81;25933;-78
2022/08/03 08:10:19;;;;;;;5.35;4.67;;;;;;;23.03;79.38;101040.52;1735201;81;25730;-79
2022/08/03 08:12:45;;;;;;;8.33;5.20;;;;;;;23.12;79.18;101038.41;1752103;80;25791;-79
2022/08/03 08:15:12;;;;;;;7.83;5.72;;;;;;;23.24;79.02;101040.46;1723872;81;27430;-79
2022/08/03 08:17:51;;;;;;;7.92;5.00;;;;;;;23.36;78.39;101041.67;1730430;81;25819;-80
2022/08/03 08:20:22;;;;;;;5.42;4.87;;;;;;;23.47;78.44;101040.15;1743661;80;25874;-78
2022/08/03 08:22:48;;;;;;;7.58;4.92;;;;;;;23.59;77.83;101037.22;1740879;81;25892;-79
2022/08/03 08:25:15;;;;;;;5.58;4.58;;;;;;;23.67;77.04;101040.86;1751986;80;25827;-77
2022/08/03 08:27:45;;;;;;;4.37;3.30;;;;;;;23.76;76.32;101039.26;1747856;80;27511;-79
2022/08/03 08:30:14;;;;;;;5.37;3.10;;;;;;;23.87;75.28;101040.98;1728344;81;26008;-79
2022/08/03 08:32:42;;;;;;;4.62;3.35;;;;;;;23.97;73.61;101038.33;1726153;81;26200;-79
2022/08/03 08:35:10;;;;;;;6.45;2.98;;;;;;;24.09;73.47;101037.61;1718067;82;25844;-79
2022/08/03 08:37:37;;;;;;;4.00;2.67;;;;;;;24.20;72.61;101038.48;1697037;82;25849;-79
2022/08/03 08:40:07;;;;;;;3.52;3.02;;;;;;;24.29;72.28;101041.00;1684246;80;27480;-75
2022/08/03 08:57:31;;;;;;;4.78;1.85;;;;;;;25.37;62.70;101039.12;1838967;75;26513;-79
2022/08/03 08:59:58;;;;;;;1.67;1.40;;;;;;;25.27;62.03;101044.06;1808383;77;26165;-78
2022/08/03 09:02:29;;;;;;;2.98;1.60;;;;;;;25.26;61.22;101040.50;1774759;79;27323;-77
2022/08/03 09:04:57;;;;;;;2.22;1.77;;;;;;;25.24;59.33;101041.86;1737093;80;25923;-80
2022/08/03 09:07:43;;;;;;;2.45;1.50;;;;;;;25.21;60.29;101046.53;1736168;78;25809;31
2022/08/03 09:10:12;;;;;;;4.37;1.85;;;;;;;25.20;59.56;101046.24;1760768;79;25773;-79
2022/08/03 09:12:45;;;;;;;3.42;1.92;;;;;;;25.24;59.40;101041.86;1799672;78;26008;-79
2022/08/03 09:15:26;;;;;;;4.47;1.32;;;;;;;25.28;58.60;101042.95;1754149;80;27452;-78
2022/08/03 09:17:57;;;;;;;1.85;1.55;;;;;;;25.32;57.30;101042.68;1803069;77;25696;-80
2022/08/03 09:20:26;;;;;;;4.70;2.00;;;;;;;25.39;57.51;101047.89;1819751;77;25748;-80
2022/08/03 09:23:03;;;;;;;6.25;1.65;;;;;;;25.41;56.69;101041.59;1785158;78;25924;-79
2022/08/03 09:25:36;;;;;;;3.55;1.30;;;;;;;25.45;55.62;101038.63;1780423;78;25955;-80
2022/08/03 09:28:17;;;;;;;2.50;1.42;;;;;;;25.45;53.55;101031.20;1784642;78;27559;-79
2022/08/03 09:30:48;;;;;;;2.20;1.32;;;;;;;25.47;54.35;101037.23;1801157;77;26183;-80
2022/08/03 09:33:15;;;;;;;6.70;1.92;;;;;;;25.49;54.12;101028.75;1804048;78;25824;-80
2022/08/03 09:35:46;;;;;;;1.37;1.20;;;;;;;25.57;53.75;101033.14;1789539;78;25793;-79
2022/08/03 09:38:24;;;;;;;4.53;1.55;;;;;;;25.61;52.52;101027.37;1770829;79;25927;-78
2022/08/03 09:40:52;;;;;;;2.70;1.40;;;;;;;25.64;52.80;101026.80;1798319;78;27492;-79
2022/08/03 09:43:19;;;;;;;1.82;1.50;;;;;;;25.72;52.82;101023.53;1812488;77;25757;-79
2022/08/03 09:45:45;;;;;;;2.60;1.70;;;;;;;25.74;53.12;101024.07;1819600;77;25781;-79
2022/08/03 09:48:30;;;;;;;5.05;1.42;;;;;;;25.75;52.71;101023.49;1780531;78;25877;-79
2022/08/03 09:51:00;;;;;;;2.70;1.90;;;;;;;25.81;53.92;101023.79;1791461;78;25266;-81
2022/08/03 09:53:27;;;;;;;4.30;1.93;;;;;;;25.86;54.63;101022.38;1788970;78;28194;-80
2022/08/03 09:55:58;;;;;;;2.65;2.25;;;;;;;25.86;53.25;101026.50;1791584;78;25507;-80
2022/08/03 09:58:27;;;;;;;5.80;2.37;;;;;;;25.90;54.98;101029.79;1811988;77;26066;-78
2022/08/03 10:01:04;;;;;;;3.05;1.90;;;;;;;25.91;54.89;101025.12;1810502;77;26480;-81
2022/08/03 10:03:35;;;;;;;5.53;1.52;;;;;;;25.93;54.26;101022.93;1812229;77;26470;-79
2022/08/03 10:06:18;;;;;;;1.77;1.50;;;;;;;25.94;54.01;101019.90;1778070;78;27451;-78
2022/08/03 10:08:46;;;;;;;3.08;1.80;;;;;;;25.97;53.49;101019.90;1781142;78;25747;-79
2022/08/03 10:11:29;;;;;;;2.60;1.72;;;;;;;25.99;54.04;101014.41;1777010;79;26507;-80
2022/08/03 10:13:55;;;;;;;4.35;1.82;;;;;;;26.09;54.29;101016.31;1819837;77;25937;-79
2022/08/03 10:16:22;;;;;;;4.47;2.30;;;;;;;26.19;54.16;101012.73;1800813;78;25775;-80
2022/08/03 10:18:48;;;;;;;2.37;1.90;;;;;;;26.24;53.18;101016.84;1794395;78;28017;-78
2022/08/03 10:21:18;;;;;;;4.47;1.70;;;;;;;26.32;54.77;101015.72;1789180;78;26022;-79
2022/08/03 10:23:45;;;;;;;13.15;2.45;;;;;;;26.41;55.36;101009.88;1814582;77;25869;-80
2022/08/03 10:26:16;;;;;;;5.58;2.17;;;;;;;26.46;53.47;101016.74;1778291;79;26150;-80
2022/08/03 10:28:49;;;;;;;3.75;1.90;;;;;;;26.47;53.54;101018.95;1811534;77;26104;-79
2022/08/03 10:31:19;;;;;;;3.52;1.57;;;;;;;26.49;52.32;101011.24;1791218;78;27523;-80
2022/08/03 10:33:48;;;;;;;;;;;;;;;26.55;51.82;101019.72;1819541;77;26018;-80
2022/08/03 10:36:16;;;;;;;1.80;1.47;;;;;;;26.57;51.64;101018.89;1780054;79;25283;-79
2022/08/03 10:38:55;;;;;;;2.58;1.77;;;;;;;26.63;52.67;101018.58;1797815;78;25299;-79
2022/08/03 10:41:25;;;;;;;3.75;1.70;;;;;;;26.70;51.23;101016.91;1812677;77;25913;-78
2022/08/03 10:43:56;;;;;;;1.80;1.52;;;;;;;26.71;51.59;101014.41;1811697;77;28486;-79
2022/08/03 10:46:23;;;;;;;3.20;2.45;;;;;;;26.77;51.25;101015.25;1814488;77;25729;-78
2022/08/03 10:48:51;;;;;;;6.03;2.90;;;;;;;26.81;51.18;101028.14;1809959;77;25486;-79
2022/08/03 10:51:19;;;;;;;4.22;2.08;;;;;;;26.91;52.51;101023.95;1808611;77;25806;-79
2022/08/03 10:53:46;;;;;;;4.60;2.08;;;;;;;27.04;54.51;101017.00;1812045;77;25898;-78
2022/08/03 10:59:50;;;;;;;7.87;4.10;;;;;;;27.20;54.25;101014.42;1813752;77;25905;-79
2022/08/03 11:02:16;;;;;;;5.00;3.47;;;;;;;27.30;54.59;101010.20;1813381;77;26498;-79
2022/08/03 11:04:46;;;;;;;8.73;5.83;;;;;;;27.38;54.44;101008.23;1813922;77;26653;-78
2022/08/03 11:07:24;;;;;;;15.58;8.98;;;;;;;27.46;54.69;101010.36;1813000;77;25917;-80
2022/08/03 11:09:53;;;;;;;9.65;5.10;;;;;;;27.55;54.30;101009.19;1823334;77;28231;-79
2022/08/03 11:12:31;;;;;;;4.05;3.15;;;;;;;27.66;54.37;101010.19;1816684;77;25844;-80
2022/08/03 11:15:05;;;;;;;2.55;2.35;;;;;;;27.76;53.98;101005.95;1809175;76;25848;-80
2022/08/03 11:17:34;;;;;;;4.85;2.65;;;;;;;27.84;53.53;101003.97;1813187;77;25479;-79
2022/08/03 11:20:01;;;;;;;9.13;2.90;;;;;;;27.95;53.67;101007.44;1801939;77;25776;-82
2022/08/03 11:22:48;;;;;;;3.05;2.50;;;;;;;28.05;53.22;101007.34;1813267;77;27437;-79
2022/08/03 11:25:15;;;;;;;4.87;3.00;;;;;;;28.14;53.22;101002.84;1782887;78;25997;-78
2022/08/03 11:27:41;;;;;;;3.25;2.10;;;;;;;28.17;53.10;101000.86;1780817;78;25803;-78
2022/08/03 11:30:13;;;;;;;3.58;2.42;;;;;;;28.17;53.06;101003.06;1785604;78;26076;-79
2022/08/03 11:32:46;;;;;;;3.52;2.08;;;;;;;28.10;52.64;101005.92;1781855;78;25888;-80
2022/08/03 11:35:20;;;;;;;3.37;2.62;;;;;;;28.00;52.61;100996.37;1780269;78;27468;-79
2022/08/03 11:38:03;;;;;;;4.25;2.20;;;;;;;27.89;51.91;100992.05;1784047;78;25862;-79
2022/08/03 11:40:44;;;;;;;3.95;1.87;;;;;;;27.87;51.93;100990.14;1788147;78;25781;-79
2022/08/03 11:43:36;;;;;;;2.40;2.20;;;;;;;27.86;51.67;100986.59;1785379;78;25901;-79
2022/08/03 11:46:16;;;;;;;3.47;2.17;;;;;;;27.82;51.09;100986.09;1787701;78;26010;-79
2022/08/03 11:48:44;;;;;;;2.75;2.30;;;;;;;27.76;50.92;100986.68;1785941;78;28464;-80
2022/08/03 11:51:28;;;;;;;3.10;2.22;;;;;;;27.68;50.67;100983.73;1782943;78;25728;-79
2022/08/03 11:53:58;;;;;;;4.40;2.25;;;;;;;27.54;50.85;100989.13;1782744;78;26399;-78
2022/08/03 11:56:26;;;;;;;5.78;1.98;;;;;;;27.54;50.53;100985.55;1786722;78;25963;-78
2022/08/03 11:58:56;;;;;;;3.85;2.12;;;;;;;27.59;50.84;100984.12;1790529;78;25968;-77